Time;durP1;ratioP1;P1;durP2;ratioP2;P2;SDS_P1;SDS_P2;PMS_P1;PMS_P2;Temp;Humidity;BMP_temperature;BMP_pressure;BME280_temperature;BME280_humidity;BME280_pressure;Samples;Min_cycle;Max_cycle;Signal;HPM_P1;HPM_P2
2022/12/19 00:00:08;;;;;;;72.57;36.70;;;;;;;-1.28;100.00;101440.78;5003128;28;20038;-81
2022/12/19 00:02:34;;;;;;;67.75;34.28;;;;;;;-1.28;100.00;101435.66;4997500;28;20409;-79
2022/12/19 00:05:01;;;;;;;75.60;35.90;;;;;;;-1.30;100.00;101429.75;5002052;28;20078;-81
2022/12/19 00:07:29;;;;;;;75.20;35.28;;;;;;;-1.30;100.00;101424.59;5006827;28;20054;-80
2022/12/19 00:09:56;;;;;;;76.03;36.70;;;;;;;-1.24;100.00;101422.63;5003557;28;20054;-80
2022/12/19 00:12:28;;;;;;;71.57;34.75;;;;;;;-1.25;100.00;101413.25;5003982;28;20050;-79
2022/12/19 00:14:55;;;;;;;74.97;35.47;;;;;;;-1.33;100.00;101390.44;5002392;28;20125;-81
2022/12/19 00:17:24;;;;;;;74.70;35.03;;;;;;;-1.13;100.00;101409.38;5001253;28;20062;-79
2022/12/19 00:19:51;;;;;;;70.90;34.63;;;;;;;-1.26;100.00;101387.63;4998330;28;20473;-78
2022/12/19 00:22:18;;;;;;;71.45;35.70;;;;;;;-1.20;100.00;101395.09;4997232;28;20054;-79
2022/12/19 00:25:01;;;;;;;68.60;34.80;;;;;;;-1.10;100.00;101409.25;4998799;28;20043;-80
2022/12/19 00:27:34;;;;;;;69.55;36.03;;;;;;;-1.13;100.00;101412.78;5000686;28;20046;-80
2022/12/19 00:30:01;;;;;;;70.18;35.53;;;;;;;-1.05;100.00;101409.91;5000775;28;20053;-79
2022/12/19 00:32:29;;;;;;;74.88;35.28;;;;;;;-1.06;100.00;101403.91;5000972;28;20054;-79
2022/12/19 00:35:15;;;;;;;69.97;35.22;;;;;;;-1.12;100.00;101393.06;5006653;28;20057;-79
2022/12/19 00:38:16;;;;;;;62.20;31.83;;;;;;;-1.15;100.00;101368.34;5002521;28;20073;-80
2022/12/19 00:40:55;;;;;;;69.65;34.15;;;;;;;-1.04;100.00;101386.72;5001065;28;20116;-79
2022/12/19 00:43:21;;;;;;;68.57;31.88;;;;;;;-1.01;100.00;101385.75;5002681;28;20050;-78
2022/12/19 00:45:48;;;;;;;68.60;32.55;;;;;;;-0.97;100.00;101413.00;5002351;28;20448;-80
2022/12/19 00:48:16;;;;;;;72.65;36.67;;;;;;;-0.96;100.00;101418.97;5001577;28;20501;-80
2022/12/19 00:50:43;;;;;;;79.97;34.60;;;;;;;-0.90;100.00;101408.41;5000958;28;20058;-79
2022/12/19 00:53:09;;;;;;;75.00;36.05;;;;;;;-0.89;100.00;101402.38;5004387;28;20058;-80
2022/12/19 00:55:38;;;;;;;64.35;33.00;;;;;;;-0.87;100.00;101398.84;5009023;28;20054;-80
2022/12/19 00:58:04;;;;;;;70.15;34.47;;;;;;;-0.85;100.00;101402.19;5008346;28;20097;-80
2022/12/19 01:00:31;;;;;;;68.40;34.10;;;;;;;-0.80;100.00;101384.84;5007295;28;20089;-81
2022/12/19 01:02:58;;;;;;;70.55;36.17;;;;;;;-0.80;100.00;101381.44;5006962;28;20093;-81
2022/12/19 01:05:26;;;;;;;68.13;36.40;;;;;;;-0.78;100.00;101387.34;5007133;28;20054;-79
2022/12/19 01:07:52;;;;;;;60.95;29.60;;;;;;;-0.74;100.00;101381.16;5004377;28;20137;-79
2022/12/19 01:10:19;;;;;;;66.57;34.08;;;;;;;-0.78;100.00;101384.75;4999245;28;20141;-81
2022/12/19 01:12:45;;;;;;;73.20;36.00;;;;;;;-0.75;100.00;101364.09;5000498;28;20508;-81
2022/12/19 01:15:12;;;;;;;70.68;35.08;;;;;;;-0.77;100.00;101353.03;5000195;28;20058;-80
2022/12/19 01:17:39;;;;;;;68.75;32.95;;;;;;;-0.73;100.00;101349.44;4998644;28;20050;-81
2022/12/19 01:20:06;;;;;;;74.30;36.17;;;;;;;-0.74;100.00;101340.06;5002119;28;20053;-80
2022/12/19 01:22:34;;;;;;;73.35;36.25;;;;;;;-0.71;100.00;101342.50;5000201;28;20042;-80
2022/12/19 01:25:01;;;;;;;73.60;36.30;;;;;;;-0.73;100.00;101337.41;4998556;28;20133;-79
2022/12/19 01:27:27;;;;;;;73.85;37.83;;;;;;;-0.68;100.00;101337.22;4995101;28;20054;-79
2022/12/19 01:29:57;;;;;;;70.97;35.33;;;;;;;-0.59;100.00;101347.09;4999468;28;20050;-80
2022/12/19 01:32:23;;;;;;;63.00;34.67;;;;;;;-0.56;100.00;101356.41;5000675;28;20061;-81
2022/12/19 01:34:50;;;;;;;74.38;35.25;;;;;;;-0.54;100.00;101354.63;4999664;28;20145;-80
2022/12/19 01:37:16;;;;;;;66.70;34.13;;;;;;;-0.52;100.00;101353.66;4997754;28;20113;-80
2022/12/19 01:39:45;;;;;;;66.97;32.80;;;;;;;-0.45;100.00;101360.16;4999836;28;20057;-80
2022/12/19 01:42:14;;;;;;;68.90;33.15;;;;;;;-0.45;100.00;101359.31;5002803;28;20085;-80
2022/12/19 01:45:19;;;;;;;68.15;32.72;;;;;;;-0.40;100.00;101357.38;5002664;28;20069;-79
2022/12/19 01:47:51;;;;;;;64.70;32.22;;;;;;;-0.36;100.00;101359.75;5002278;28;20062;-81
2022/12/19 01:50:23;;;;;;;67.05;34.20;;;;;;;-0.35;100.00;101365.72;5002605;28;20046;-80
2022/12/19 01:52:51;;;;;;;69.15;34.65;;;;;;;-0.34;100.00;101362.25;4999509;28;20105;-81
2022/12/19 01:55:20;;;;;;;67.57;33.42;;;;;;;-0.30;100.00;101368.09;4999259;28;20133;-79
2022/12/19 01:57:47;;;;;;;62.92;31.52;;;;;;;-0.31;100.00;101351.00;4999520;28;20050;-81
2022/12/19 02:00:14;;;;;;;66.47;31.50;;;;;;;-0.26;100.00;101349.06;4999241;28;20073;-81
2022/12/19 02:02:46;;;;;;;67.28;32.38;;;;;;;-0.26;100.00;101325.91;4999721;28;20223;-80
2022/12/19 02:05:12;;;;;;;70.70;34.42;;;;;;;-0.25;100.00;101325.84;4999204;28;20129;-79
2022/12/19 02:07:42;;;;;;;60.30;31.92;;;;;;;-0.17;100.00;101333.22;5001094;28;20126;-79
2022/12/19 02:10:09;;;;;;;68.80;32.80;;;;;;;-0.20;100.00;101335.94;5001505;28;20047;-79
2022/12/19 02:12:39;;;;;;;65.57;33.15;;;;;;;-0.17;100.00;101320.34;4995666;28;20051;-79
2022/12/19 02:15:08;;;;;;;61.33;32.03;;;;;;;-0.15;100.00;101315.97;4994843;28;20151;-79
2022/12/19 02:17:42;;;;;;;62.40;28.73;;;;;;;-0.10;100.00;101299.41;4994975;28;20425;-79
2022/12/19 02:20:44;;;;;;;60.17;30.95;;;;;;;-0.12;100.00;101292.69;4994894;28;20038;-79
2022/12/19 02:23:42;;;;;;;65.53;32.85;;;;;;;-0.10;100.00;101286.56;4970944;28;20110;-78
2022/12/19 02:26:36;;;;;;;65.50;34.00;;;;;;;-0.06;100.00;101279.53;4994666;28;20130;-78
2022/12/19 02:29:24;;;;;;;68.43;32.90;;;;;;;-0.07;100.00;101276.13;4993638;28;20050;-78
2022/12/19 02:31:58;;;;;;;61.92;33.15;;;;;;;-0.08;100.00;101276.19;4993986;28;20136;-79
2022/12/19 02:34:30;;;;;;;64.38;33.42;;;;;;;0.02;100.00;101271.44;4995810;28;20139;-79
2022/12/19 02:37:02;;;;;;;60.88;30.95;;;;;;;0.02;100.00;101272.25;4996288;28;20089;-79
2022/12/19 02:39:34;;;;;;;64.60;33.03;;;;;;;0.04;100.00;101272.19;4996683;28;20458;-79
2022/12/19 02:42:05;;;;;;;59.78;30.88;;;;;;;0.01;100.00;101268.00;4998265;28;20118;-80
2022/12/19 02:44:37;;;;;;;63.00;33.30;;;;;;;0.06;100.00;101266.06;4994786;28;20138;-78
2022/12/19 02:47:07;;;;;;;60.67;32.80;;;;;;;0.08;100.00;101251.38;4994530;28;20058;-79
2022/12/19 02:49:35;;;;;;;71.18;33.92;;;;;;;0.07;100.00;101259.19;4975902;28;20114;-79
2022/12/19 02:52:09;;;;;;;62.00;30.95;;;;;;;0.04;100.00;101242.16;4975531;28;20438;-79
2022/12/19 02:54:36;;;;;;;63.58;32.80;;;;;;;0.07;100.00;101233.44;4990119;28;20077;-80
2022/12/19 02:57:13;;;;;;;64.82;33.45;;;;;;;0.10;100.00;101244.44;4995253;28;20085;-79
2022/12/19 02:59:52;;;;;;;59.40;30.23;;;;;;;0.11;100.00;101242.69;5004053;28;20117;-81
2022/12/19 03:02:33;;;;;;;65.13;32.85;;;;;;;0.09;100.00;101247.91;5015634;28;20074;-80
2022/12/19 03:05:08;;;;;;;65.38;32.75;;;;;;;0.10;100.00;101243.59;5015148;28;20057;-80
2022/12/19 03:07:40;;;;;;;68.40;33.53;;;;;;;0.11;100.00;101233.22;5005789;28;20053;-81
2022/12/19 03:10:17;;;;;;;66.38;33.45;;;;;;;0.14;100.00;101243.38;5003200;28;20077;-80
2022/12/19 03:12:50;;;;;;;63.88;33.10;;;;;;;0.15;100.00;101241.63;5012348;28;20034;-81
2022/12/19 03:15:16;;;;;;;59.25;31.20;;;;;;;0.15;100.00;101232.16;5015411;28;20172;-82
2022/12/19 03:17:45;;;;;;;67.75;34.63;;;;;;;0.17;100.00;101235.50;5014203;28;20086;-81
2022/12/19 03:20:23;;;;;;;63.53;32.53;;;;;;;0.22;100.00;101233.53;5013989;28;20077;-82
2022/12/19 03:22:50;;;;;;;66.85;33.70;;;;;;;0.20;100.00;101229.38;5008024;28;20061;-81
2022/12/19 03:25:18;;;;;;;61.58;33.45;;;;;;;0.21;100.00;101241.34;5003280;28;20073;-80
2022/12/19 03:27:48;;;;;;;67.28;33.08;;;;;;;0.29;100.00;101234.91;5003096;28;20073;-80
2022/12/19 03:30:15;;;;;;;64.63;33.17;;;;;;;0.29;100.00;101228.94;5001210;28;20111;-80
2022/12/19 03:32:46;;;;;;;65.68;33.92;;;;;;;0.22;100.00;101223.25;4999952;28;20050;-79
2022/12/19 03:35:18;;;;;;;65.75;35.05;;;;;;;0.19;100.00;101220.81;5000887;28;20105;-78
2022/12/19 03:37:47;;;;;;;65.13;33.55;;;;;;;0.29;100.00;101211.75;5000294;28;20077;-79
2022/12/19 03:40:17;;;;;;;70.95;34.85;;;;;;;0.26;100.00;101219.63;4998324;28;20145;-78
2022/12/19 03:45:37;;;;;;;63.03;34.22;;;;;;;0.22;100.00;101212.13;4980514;28;20105;-80
2022/12/19 03:48:07;;;;;;;;;;;;;;;0.20;100.00;101204.47;4983776;28;20110;-80
2022/12/19 03:50:45;;;;;;;60.67;32.85;;;;;;;0.21;100.00;101211.28;4998972;28;19925;-79
2022/12/19 03:53:23;;;;;;;72.05;36.80;;;;;;;0.21;100.00;101215.59;4998943;28;20141;-80
2022/12/19 03:55:58;;;;;;;74.22;36.58;;;;;;;0.20;100.00;101207.03;4997116;28;20136;-79
2022/12/19 03:58:29;;;;;;;74.53;36.05;;;;;;;0.21;100.00;101207.88;4997037;28;20070;-80
2022/12/19 04:00:57;;;;;;;69.35;35.22;;;;;;;0.20;100.00;101209.63;4997501;28;20050;-79
2022/12/19 04:03:27;;;;;;;72.68;37.40;;;;;;;0.19;100.00;101204.53;4997352;28;20493;-78
2022/12/19 04:05:55;;;;;;;74.30;36.40;;;;;;;0.19;100.00;101215.66;4999456;28;20574;-79
2022/12/19 04:08:24;;;;;;;72.03;36.20;;;;;;;0.21;100.00;101195.84;4996108;28;20481;-79
2022/12/19 04:10:55;;;;;;;76.28;38.08;;;;;;;0.17;100.00;101196.91;4996938;28;20129;-78
2022/12/19 04:13:28;;;;;;;80.75;38.72;;;;;;;0.19;100.00;101196.81;4997029;28;20141;-79
2022/12/19 04:16:03;;;;;;;73.30;37.10;;;;;;;0.23;100.00;101206.91;4997788;28;20050;-79
2022/12/19 04:18:34;;;;;;;77.57;37.60;;;;;;;0.23;100.00;101208.63;4996995;28;20057;-80
2022/12/19 04:21:08;;;;;;;83.38;39.78;;;;;;;0.23;100.00;101209.47;4997215;28;20129;-78
2022/12/19 04:23:40;;;;;;;78.70;38.85;;;;;;;0.24;100.00;101216.28;4996514;28;20093;-79
2022/12/19 04:26:07;;;;;;;73.65;36.80;;;;;;;0.30;100.00;101220.28;4977674;28;20065;-79
2022/12/19 04:28:40;;;;;;;75.25;37.65;;;;;;;0.36;100.00;101229.47;4976747;28;20123;-78
2022/12/19 04:31:08;;;;;;;73.70;37.10;;;;;;;0.36;100.00;101219.16;4984748;28;20132;-80
2022/12/19 04:33:36;;;;;;;80.45;40.38;;;;;;;0.38;100.00;101225.91;4994421;28;20140;-78
2022/12/19 04:36:02;;;;;;;83.28;39.00;;;;;;;0.41;100.00;101232.63;4994762;28;20121;-78
2022/12/19 04:38:30;;;;;;;78.70;39.42;;;;;;;0.42;100.00;101234.31;4999193;28;20066;-79
2022/12/19 04:40:56;;;;;;;84.63;40.83;;;;;;;0.43;100.00;101228.25;4998581;28;20046;-78
2022/12/19 04:43:23;;;;;;;79.97;42.78;;;;;;;0.48;100.00;101223.69;4998233;28;20137;-79
2022/12/19 04:45:50;;;;;;;78.93;39.30;;;;;;;0.51;100.00;101226.09;4999273;28;20089;-79
2022/12/19 04:48:16;;;;;;;78.82;40.72;;;;;;;0.51;100.00;101231.25;4997033;28;20058;-79
2022/12/19 04:50:44;;;;;;;81.53;41.72;;;;;;;0.54;100.00;101223.38;4994661;28;20122;-78
2022/12/19 04:53:11;;;;;;;81.78;41.28;;;;;;;0.52;100.00;101217.47;4994702;28;20073;-79
2022/12/19 04:55:38;;;;;;;85.43;41.67;;;;;;;0.53;100.00;101211.41;4996867;28;20121;-78
2022/12/19 04:58:07;;;;;;;93.05;44.28;;;;;;;0.52;100.00;101214.88;4996202;28;20122;-78
2022/12/19 05:00:34;;;;;;;90.90;44.10;;;;;;;0.52;100.00;101220.88;4995615;28;20050;-79
2022/12/19 05:03:00;;;;;;;88.93;43.95;;;;;;;0.53;100.00;101206.25;4997356;28;20513;-79
2022/12/19 05:05:27;;;;;;;97.15;45.03;;;;;;;0.53;100.00;101216.56;4996911;28;20054;-78
2022/12/19 05:07:58;;;;;;;99.97;45.70;;;;;;;0.55;100.00;101215.56;4997924;28;20051;-79
2022/12/19 05:10:25;;;;;;;94.65;43.20;;;;;;;0.55;100.00;101222.47;4996786;28;20129;-78
2022/12/19 05:12:53;;;;;;;98.40;46.28;;;;;;;0.56;100.00;101216.41;5000883;28;20167;-78
2022/12/19 05:15:19;;;;;;;94.47;44.80;;;;;;;0.58;100.00;101217.16;5001176;28;20154;-77
2022/12/19 05:17:46;;;;;;;101.00;45.75;;;;;;;0.56;100.00;101206.09;4999840;28;20149;-79
2022/12/19 05:20:13;;;;;;;102.45;43.38;;;;;;;0.59;100.00;101211.94;5000545;28;20684;-79
2022/12/19 05:22:39;;;;;;;96.75;43.88;;;;;;;0.59;100.00;101208.53;5000270;28;20154;-78
2022/12/19 05:25:09;;;;;;;94.55;44.85;;;;;;;0.59;100.00;101213.66;5000277;28;20200;-79
2022/12/19 05:27:35;;;;;;;92.40;42.92;;;;;;;0.64;100.00;101214.28;4996618;28;20140;-79
2022/12/19 05:30:02;;;;;;;98.72;43.08;;;;;;;0.64;100.00;101219.41;4996148;28;20046;-79
2022/12/19 05:32:31;;;;;;;88.75;43.40;;;;;;;0.67;100.00;101208.97;5011406;23;20046;-79
2022/12/19 05:34:57;;;;;;;93.72;42.92;;;;;;;0.70;100.00;101206.22;5027567;28;20050;-79
2022/12/19 05:37:24;;;;;;;88.90;41.70;;;;;;;0.75;100.00;101206.84;5021880;28;20057;-81
2022/12/19 05:39:50;;;;;;;87.88;43.42;;;;;;;0.74;100.00;101218.03;5020692;28;20050;-79
2022/12/19 05:42:18;;;;;;;91.32;42.92;;;;;;;0.75;100.00;101217.13;5010710;28;20078;-79
2022/12/19 05:44:45;;;;;;;84.75;40.25;;;;;;;0.80;100.00;101222.06;5001295;28;20144;-80
2022/12/19 05:47:11;;;;;;;89.20;42.47;;;;;;;0.81;100.00;101218.56;5001724;28;20130;-82
2022/12/19 05:49:41;;;;;;;83.95;39.47;;;;;;;0.83;100.00;101220.16;5000569;28;20141;-80
2022/12/19 05:52:10;;;;;;;82.25;40.17;;;;;;;0.86;100.00;101214.00;4999752;28;20111;-80
2022/12/19 05:54:37;;;;;;;91.55;42.95;;;;;;;0.86;100.00;101204.53;5004798;28;20114;-81
2022/12/19 05:57:03;;;;;;;84.07;43.10;;;;;;;0.86;100.00;101208.84;5018183;28;20144;-80
2022/12/19 05:59:31;;;;;;;95.25;42.75;;;;;;;0.86;100.00;101203.72;5019503;28;20137;-79
2022/12/19 06:01:58;;;;;;;95.35;43.97;;;;;;;0.88;100.00;101210.44;5021051;28;20105;-79
2022/12/19 06:04:24;;;;;;;98.10;45.45;;;;;;;0.91;100.00;101215.44;5022358;28;20133;-81
2022/12/19 06:06:51;;;;;;;91.75;43.28;;;;;;;0.96;100.00;101217.75;5017922;28;20125;-80
2022/12/19 06:09:18;;;;;;;90.55;43.85;;;;;;;0.92;100.00;101211.13;5020556;28;20585;-82
2022/12/19 06:11:44;;;;;;;96.05;45.15;;;;;;;0.96;100.00;101220.31;5018342;28;20501;-82
2022/12/19 06:14:11;;;;;;;88.93;43.83;;;;;;;0.97;100.00;101215.09;5002752;28;20508;-81
2022/12/19 06:16:39;;;;;;;88.63;44.35;;;;;;;1.02;100.00;101212.28;5022389;28;20064;-82
2022/12/19 06:19:06;;;;;;;89.60;45.00;;;;;;;1.03;100.00;101211.38;5017578;28;20133;-81
2022/12/19 06:21:34;;;;;;;91.55;46.85;;;;;;;1.06;100.00;101205.22;5024143;28;20088;-84
2022/12/19 06:24:01;;;;;;;88.55;44.63;;;;;;;1.05;100.00;101212.13;5033238;28;20105;-82
2022/12/19 06:26:27;;;;;;;83.25;40.60;;;;;;;1.15;100.00;101209.88;5037592;28;20141;-83
2022/12/19 06:28:55;;;;;;;90.32;43.80;;;;;;;1.16;100.00;101220.13;5036138;28;20160;-82
2022/12/19 06:31:23;;;;;;;89.10;44.50;;;;;;;1.16;100.00;101229.59;5034454;28;20503;-82
2022/12/19 06:33:52;;;;;;;91.38;43.92;;;;;;;1.18;100.00;101226.03;5034822;28;20125;-81
2022/12/19 06:36:21;;;;;;;94.95;44.10;;;;;;;1.20;100.00;101219.03;5029020;28;20105;-81
2022/12/19 06:38:47;;;;;;;86.53;44.30;;;;;;;1.25;100.00;101236.84;5019139;28;20109;-80
2022/12/19 06:43:59;;;;;;;89.88;42.72;;;;;;;1.29;100.00;101233.19;5006519;28;20126;-81
2022/12/19 06:46:26;;;;;;;83.40;41.03;;;;;;;1.31;100.00;101233.94;5007265;28;20097;-82
2022/12/19 06:48:54;;;;;;;94.13;46.53;;;;;;;1.35;100.00;101239.78;5006611;28;20082;-82
2022/12/19 06:51:21;;;;;;;90.05;42.63;;;;;;;1.37;100.00;101233.63;5007290;28;20111;-81
2022/12/19 06:53:48;;;;;;;87.18;44.30;;;;;;;1.40;100.00;101225.72;5005179;28;20421;-81
2022/12/19 06:56:19;;;;;;;87.30;43.70;;;;;;;1.42;100.00;101230.78;5015314;28;20054;-83
2022/12/19 06:58:47;;;;;;;90.32;43.90;;;;;;;1.46;100.00;101225.34;5032782;28;20042;-82
2022/12/19 07:01:20;;;;;;;85.72;44.45;;;;;;;1.44;100.00;101226.34;5016813;28;20489;-82
2022/12/19 07:03:50;;;;;;;93.13;43.92;;;;;;;1.51;100.00;101233.69;5007048;28;20070;-83
2022/12/19 07:06:22;;;;;;;82.38;40.75;;;;;;;1.52;100.00;101222.44;5007174;28;20058;-82
2022/12/19 07:11:33;;;;;;;87.35;40.33;;;;;;;1.63;100.00;101232.19;5036755;28;20036;-84
2022/12/19 07:14:12;;;;;;;84.55;40.85;;;;;;;1.54;100.00;101212.88;5037744;28;20046;-84
2022/12/19 07:16:49;;;;;;;83.93;41.85;;;;;;;1.67;100.00;101234.53;5035908;28;20029;-82
2022/12/19 07:19:29;;;;;;;78.22;36.75;;;;;;;1.60;100.00;101212.56;5036767;28;20109;-83
2022/12/19 07:22:01;;;;;;;79.97;41.00;;;;;;;1.72;100.00;101220.53;5028931;28;20077;-83
2022/12/19 07:24:37;;;;;;;67.13;32.43;;;;;;;1.75;100.00;101234.09;5013943;28;20062;-84
2022/12/19 07:27:08;;;;;;;83.82;40.30;;;;;;;1.76;100.00;101237.50;5022745;28;20068;-84
2022/12/19 07:29:37;;;;;;;84.70;40.33;;;;;;;1.81;100.00;101240.66;5022780;28;20042;-83
2022/12/19 07:34:47;;;;;;;87.35;40.78;;;;;;;1.78;100.00;101226.19;5013029;28;20505;-81
2022/12/19 07:37:24;;;;;;;85.18;41.20;;;;;;;1.74;100.00;101216.13;5013130;28;20031;-82
2022/12/19 07:39:56;;;;;;;80.50;40.63;;;;;;;1.78;100.00;101226.19;5009962;28;20057;-83
2022/12/19 07:42:32;;;;;;;83.25;42.67;;;;;;;1.81;100.00;101230.34;5011484;28;20078;-84
2022/12/19 07:45:04;;;;;;;83.05;40.22;;;;;;;1.88;100.00;101226.50;5012533;28;20082;-83
2022/12/19 07:47:33;;;;;;;76.90;40.20;;;;;;;1.90;100.00;101232.38;5053902;23;20062;-79
2022/12/19 07:50:07;;;;;;;84.50;40.80;;;;;;;1.79;100.00;101206.38;5003793;28;20050;-79
2022/12/19 07:52:36;;;;;;;87.57;42.25;;;;;;;1.77;100.00;101209.03;5004686;28;20042;-79
2022/12/19 07:55:04;;;;;;;81.03;40.90;;;;;;;1.98;100.00;101227.63;5004529;28;20142;-80
2022/12/19 07:57:55;;;;;;;88.20;43.20;;;;;;;2.05;100.00;101228.97;5004130;28;20053;-79
2022/12/19 08:00:22;;;;;;;85.63;43.28;;;;;;;2.06;100.00;101230.63;5005602;28;20060;-80
2022/12/19 08:03:20;;;;;;;88.63;43.05;;;;;;;1.94;100.00;101210.66;5006633;28;20050;-80
2022/12/19 08:05:50;;;;;;;91.53;42.83;;;;;;;2.12;100.00;101240.59;5005986;28;20129;-79
2022/12/19 08:09:20;;;;;;;83.38;42.47;;;;;;;1.97;100.00;101219.06;5004322;28;20056;-79
2022/12/19 08:15:06;;;;;;;83.20;42.25;;;;;;;2.07;100.00;101227.13;4983055;28;20453;-81
2022/12/19 08:17:32;;;;;;;82.28;44.80;;;;;;;2.08;100.00;101238.28;4998613;28;20165;-79
2022/12/19 08:19:59;;;;;;;85.95;44.10;;;;;;;2.10;100.00;101241.59;4997929;28;20113;-80
2022/12/19 08:22:26;;;;;;;84.47;43.28;;;;;;;2.02;100.00;101236.03;4998383;28;20524;-79
2022/12/19 08:24:53;;;;;;;81.88;43.53;;;;;;;2.20;100.00;101253.91;4998359;28;20046;-78
2022/12/19 08:27:19;;;;;;;80.65;41.85;;;;;;;2.07;100.00;101242.59;4999026;28;20510;-83
2022/12/19 08:29:49;;;;;;;85.90;44.00;;;;;;;2.15;100.00;101255.91;4998685;28;20054;-79
2022/12/19 08:32:17;;;;;;;81.20;43.35;;;;;;;2.27;100.00;101275.88;5010391;28;20136;-80
2022/12/19 08:34:43;;;;;;;83.35;44.40;;;;;;;2.25;100.00;101264.81;5018043;28;20569;-78
2022/12/19 08:37:13;;;;;;;80.88;45.15;;;;;;;2.37;100.00;101280.50;5016588;28;20065;-78
2022/12/19 08:39:40;;;;;;;84.70;44.10;;;;;;;2.38;100.00;101262.34;5015248;28;20050;-79
2022/12/19 08:42:06;;;;;;;87.50;44.67;;;;;;;2.44;100.00;101277.50;5015371;28;20081;-80
2022/12/19 08:44:33;;;;;;;90.93;43.85;;;;;;;2.46;100.00;101270.47;5015252;28;20069;-79
2022/12/19 08:47:01;;;;;;;80.70;44.55;;;;;;;2.48;100.00;101272.97;5013705;28;20077;-78
2022/12/19 08:49:29;;;;;;;90.97;45.47;;;;;;;2.46;100.00;101267.06;5017159;28;20066;-79
2022/12/19 08:51:55;;;;;;;78.55;43.05;;;;;;;2.45;100.00;101268.81;5013600;28;20169;-79
2022/12/19 08:54:22;;;;;;;80.90;44.35;;;;;;;2.42;100.00;101263.81;5005692;28;20409;-79
2022/12/19 08:56:48;;;;;;;91.57;43.97;;;;;;;2.43;100.00;101269.81;5007220;28;20066;-80
2022/12/19 08:59:15;;;;;;;88.90;44.42;;;;;;;2.43;100.00;101254.31;5000267;28;20547;-80
2022/12/19 09:01:42;;;;;;;96.20;45.08;;;;;;;2.49;100.00;101265.16;4997415;28;20047;-79
2022/12/19 09:04:08;;;;;;;94.47;46.05;;;;;;;2.51;100.00;101258.13;4996157;28;20081;-79
2022/12/19 09:06:39;;;;;;;92.13;44.83;;;;;;;2.55;100.00;101238.94;4995832;28;20474;-79
2022/12/19 09:09:05;;;;;;;86.65;42.70;;;;;;;2.55;100.00;101238.13;4990685;28;20121;-79
2022/12/19 09:11:32;;;;;;;80.88;44.75;;;;;;;2.63;100.00;101236.75;4993561;28;20081;-77
2022/12/19 09:13:59;;;;;;;92.60;44.15;;;;;;;2.65;100.00;101239.25;4995255;28;20137;-78
2022/12/19 09:16:27;;;;;;;86.80;43.03;;;;;;;2.64;100.00;101238.41;4997080;28;20722;-78
2022/12/19 09:18:57;;;;;;;87.72;44.33;;;;;;;2.74;100.00;101236.13;4993434;28;20481;-79
2022/12/19 09:21:27;;;;;;;85.95;46.22;;;;;;;2.77;100.00;101238.53;4994862;28;20157;-78
2022/12/19 09:23:57;;;;;;;86.53;43.45;;;;;;;2.81;100.00;101229.69;4996178;28;20054;-79
2022/12/19 09:26:25;;;;;;;84.72;43.58;;;;;;;2.84;100.00;101242.38;4996776;28;20057;-77
2022/12/19 09:28:52;;;;;;;84.32;43.90;;;;;;;2.86;100.00;101237.97;4996145;28;20141;-78
2022/12/19 09:31:21;;;;;;;92.72;45.20;;;;;;;2.89;100.00;101242.13;5017257;28;20132;-77
2022/12/19 09:33:48;;;;;;;89.88;44.30;;;;;;;2.92;100.00;101237.59;4998897;28;20114;-78
2022/12/19 09:36:17;;;;;;;92.78;43.42;;;;;;;2.98;100.00;101232.06;4996219;28;20065;-78
2022/12/19 09:38:44;;;;;;;87.93;44.22;;;;;;;2.94;100.00;101228.00;4996139;28;20121;-79
2022/12/19 09:41:37;;;;;;;79.57;42.47;;;;;;;2.96;100.00;101213.22;4997051;28;20077;-79
2022/12/19 09:44:15;;;;;;;90.95;43.50;;;;;;;2.98;100.00;101219.13;5015580;28;20064;-78
2022/12/19 09:46:48;;;;;;;84.53;42.50;;;;;;;3.01;100.00;101215.53;4999644;28;20055;-78
2022/12/19 09:49:17;;;;;;;;;;;;;;;3.11;100.00;101220.97;4998224;28;20054;-79
2022/12/19 09:51:49;;;;;;;82.45;41.03;;;;;;;3.15;100.00;101225.03;4999135;28;19985;-78
2022/12/19 09:54:22;;;;;;;81.67;42.20;;;;;;;3.10;100.00;101245.19;5000053;28;20469;-79
2022/12/19 09:56:52;;;;;;;81.07;42.90;;;;;;;3.16;100.00;101247.38;4998277;28;20062;-79
2022/12/19 09:59:27;;;;;;;81.15;42.67;;;;;;;3.15;100.00;101249.16;4998714;28;20080;-80
2022/12/19 10:01:59;;;;;;;79.90;42.50;;;;;;;3.16;100.00;101244.81;4995179;28;20129;-81
2022/12/19 10:04:29;;;;;;;76.25;41.67;;;;;;;3.12;100.00;101245.91;4994624;28;20131;-80
2022/12/19 10:06:56;;;;;;;79.60;41.95;;;;;;;3.13;100.00;101239.81;4994882;28;20081;-80
2022/12/19 10:09:29;;;;;;;80.20;42.70;;;;;;;3.13;100.00;101257.91;4997219;28;20137;-79
2022/12/19 10:12:15;;;;;;;83.93;42.10;;;;;;;3.09;100.00;101264.19;5013329;28;20129;-81
2022/12/19 10:14:55;;;;;;;76.63;41.60;;;;;;;3.15;100.00;101259.50;5000117;28;20055;-78
2022/12/19 10:17:33;;;;;;;78.78;41.53;;;;;;;3.12;100.00;101249.34;4999193;28;20054;-81
2022/12/19 10:20:15;;;;;;;75.78;42.28;;;;;;;3.09;100.00;101243.50;4999776;28;20104;-80
2022/12/19 10:22:51;;;;;;;72.90;40.58;;;;;;;3.10;100.00;101251.19;4980747;28;20078;-78
2022/12/19 10:25:28;;;;;;;74.72;40.90;;;;;;;3.13;100.00;101239.81;4995202;28;20129;-80
2022/12/19 10:28:06;;;;;;;74.10;38.40;;;;;;;3.11;100.00;101239.91;4999116;28;20054;-80
2022/12/19 10:30:37;;;;;;;73.85;40.47;;;;;;;3.11;100.00;101239.06;5001133;28;20097;-78
2022/12/19 10:33:21;;;;;;;72.43;39.97;;;;;;;3.07;100.00;101229.84;5002390;28;20078;-77
2022/12/19 10:35:52;;;;;;;75.25;40.53;;;;;;;3.09;100.00;101233.16;5003903;28;20420;-78
2022/12/19 10:38:25;;;;;;;82.43;41.65;;;;;;;3.10;100.00;101234.81;5005122;28;20054;-78
2022/12/19 10:41:02;;;;;;;81.70;42.33;;;;;;;3.11;100.00;101236.50;5005079;28;20089;-78
2022/12/19 10:43:40;;;;;;;74.18;40.67;;;;;;;3.10;100.00;101229.66;5007540;28;20114;-78
2022/12/19 10:46:15;;;;;;;78.13;42.65;;;;;;;3.13;100.00;101237.22;5009711;28;20050;-78
2022/12/19 10:48:42;;;;;;;80.38;41.28;;;;;;;3.08;100.00;101219.41;5006392;28;20089;-79
2022/12/19 10:51:13;;;;;;;75.10;39.90;;;;;;;3.13;100.00;101219.13;5010940;28;20050;-79
2022/12/19 10:53:40;;;;;;;75.57;41.08;;;;;;;3.10;100.00;101209.81;5012616;28;20456;-78
2022/12/19 10:56:13;;;;;;;68.32;39.05;;;;;;;3.15;100.00;101217.28;5014258;28;20054;-79
2022/12/19 10:58:43;;;;;;;69.50;39.47;;;;;;;3.15;100.00;101210.34;5015941;28;20117;-79
2022/12/19 11:01:15;;;;;;;74.20;40.20;;;;;;;3.17;100.00;101215.44;5010529;28;20050;-79
2022/12/19 11:03:44;;;;;;;79.85;37.72;;;;;;;3.23;100.00;101212.47;5022138;28;20121;-80
2022/12/19 11:06:43;;;;;;;69.72;37.55;;;;;;;3.20;100.00;101223.84;5011920;28;20069;-79
2022/12/19 11:09:28;;;;;;;70.70;38.35;;;;;;;3.24;100.00;101232.25;4999926;28;20061;-79
2022/12/19 11:12:02;;;;;;;62.88;37.28;;;;;;;3.24;100.00;101216.72;5001101;28;20127;-78
2022/12/19 11:14:31;;;;;;;67.43;38.08;;;;;;;3.26;100.00;101212.28;4998728;28;20050;-77
2022/12/19 11:16:58;;;;;;;70.75;39.05;;;;;;;3.24;100.00;101220.13;4997990;28;20056;-79
2022/12/19 11:19:30;;;;;;;68.43;38.13;;;;;;;3.27;100.00;101211.38;4997597;28;20142;-79
2022/12/19 11:22:00;;;;;;;66.28;36.00;;;;;;;3.36;100.00;101221.09;4998151;28;20042;-79
2022/12/19 11:24:34;;;;;;;66.30;37.95;;;;;;;3.37;100.00;101222.78;4997519;28;20106;-80
2022/12/19 11:27:00;;;;;;;64.40;35.35;;;;;;;3.41;100.00;101213.91;4997869;28;20089;-78
2022/12/19 11:29:42;;;;;;;68.18;36.88;;;;;;;3.49;100.00;101213.41;4996036;28;20069;-79
2022/12/19 11:32:32;;;;;;;69.32;36.75;;;;;;;3.51;100.00;101209.81;4998283;28;20070;-79
2022/12/19 11:35:00;;;;;;;73.55;38.92;;;;;;;3.55;100.00;101210.44;4997490;28;20453;-78
2022/12/19 11:37:36;;;;;;;66.47;37.90;;;;;;;3.58;100.00;101212.84;4996896;28;20053;-79